createdAt,value
2019-01-30T00:02:27.441Z,10.30
2019-01-30T00:04:57.667Z,11.17
2019-01-30T00:07:28.097Z,12.73
2019-01-30T00:09:58.581Z,11.33
2019-01-30T00:12:28.774Z,10.87
2019-01-30T00:14:59.002Z,10.90
2019-01-30T00:17:29.266Z,9.67
2019-01-30T00:19:59.530Z,11.13
2019-01-30T00:22:31.526Z,10.57
2019-01-30T00:25:01.814Z,9.47
2019-01-30T00:27:32.073Z,11.00
2019-01-30T00:30:04.029Z,10.00
2019-01-30T00:32:34.303Z,9.80
2019-01-30T00:35:07.798Z,10.17
2019-01-30T00:37:38.005Z,11.50
2019-01-30T00:40:19.756Z,9.63
2019-01-30T00:42:50.016Z,9.50
2019-01-30T00:45:21.469Z,10.40
2019-01-30T00:47:51.695Z,10.17
2019-01-30T00:50:25.066Z,7.20
2019-01-30T00:52:55.297Z,9.53
2019-01-30T00:55:25.740Z,10.80
2019-01-30T00:57:55.958Z,9.57
2019-01-30T01:00:28.706Z,13.67
2019-01-30T01:02:58.926Z,8.43
2019-01-30T01:05:29.114Z,9.03
2019-01-30T01:07:59.337Z,7.77
2019-01-30T01:10:29.610Z,11.87
2019-01-30T01:12:59.971Z,9.10
2019-01-30T01:15:30.162Z,9.70
2019-01-30T01:18:00.387Z,10.43
2019-01-30T01:20:30.883Z,8.60
2019-01-30T01:23:01.330Z,8.40
2019-01-30T01:25:31.531Z,14.90
2019-01-30T01:28:01.755Z,11.00
2019-01-30T01:30:32.166Z,9.23
2019-01-30T01:33:02.621Z,10.37
2019-01-30T01:35:32.801Z,8.77
2019-01-30T01:38:03.090Z,9.57
2019-01-30T01:40:33.284Z,8.33
2019-01-30T01:43:03.503Z,8.63
2019-01-30T01:45:33.698Z,14.10
2019-01-30T01:48:04.161Z,8.37
2019-01-30T01:50:34.341Z,9.60
2019-01-30T01:53:04.640Z,10.57
2019-01-30T01:55:35.052Z,8.67
2019-01-30T01:58:05.570Z,8.60
2019-01-30T02:00:35.849Z,8.57
2019-01-30T02:03:06.380Z,9.77
2019-01-30T02:05:36.655Z,9.00
2019-01-30T02:08:06.945Z,7.93
2019-01-30T02:10:37.358Z,6.67
2019-01-30T02:13:07.595Z,8.77
2019-01-30T02:15:37.819Z,11.17
2019-01-30T02:18:08.581Z,6.93
2019-01-30T02:20:38.981Z,8.63
2019-01-30T02:23:09.241Z,7.70
2019-01-30T02:25:39.462Z,7.47
2019-01-30T02:28:09.654Z,7.30
2019-01-30T02:30:47.276Z,9.10
2019-01-30T02:33:12.065Z,11.20
2019-01-30T02:35:42.284Z,8.73
2019-01-30T02:38:12.470Z,6.40
2019-01-30T02:40:42.685Z,6.30
2019-01-30T02:43:12.869Z,7.43
2019-01-30T02:45:43.146Z,8.77
2019-01-30T02:48:13.592Z,11.33
2019-01-30T02:50:44.038Z,8.97
2019-01-30T02:53:14.230Z,10.17
2019-01-30T02:55:44.694Z,7.37
2019-01-30T02:58:14.903Z,10.47
2019-01-30T03:00:45.106Z,6.93
2019-01-30T03:03:15.360Z,8.00
2019-01-30T03:05:45.642Z,8.07
2019-01-30T03:08:15.825Z,8.80
2019-01-30T03:10:46.047Z,7.60
2019-01-30T03:13:16.243Z,10.93
2019-01-30T03:15:46.479Z,8.23
2019-01-30T03:18:16.677Z,6.23
2019-01-30T03:20:47.113Z,8.47
2019-01-30T03:23:17.340Z,6.03
2019-01-30T03:25:47.537Z,7.93
2019-01-30T03:28:17.982Z,7.37
2019-01-30T03:30:48.402Z,8.50
2019-01-30T03:33:18.618Z,8.60
2019-01-30T03:35:48.803Z,7.30
2019-01-30T03:38:19.273Z,7.77
2019-01-30T03:40:49.691Z,6.07
2019-01-30T03:43:19.902Z,9.90
2019-01-30T03:45:50.328Z,8.57
2019-01-30T03:48:20.773Z,8.17
2019-01-30T03:50:51.042Z,5.17
2019-01-30T03:53:21.255Z,7.90
2019-01-30T03:55:51.445Z,10.43
2019-01-30T03:58:21.670Z,5.07
2019-01-30T04:00:52.107Z,8.00
2019-01-30T04:03:22.322Z,5.60
2019-01-30T04:05:52.745Z,6.70
2019-01-30T04:08:22.972Z,7.87
2019-01-30T04:10:53.400Z,7.37
2019-01-30T04:13:23.622Z,6.17
2019-01-30T04:15:53.813Z,7.03
2019-01-30T04:18:24.033Z,5.33
2019-01-30T04:20:54.222Z,8.57
2019-01-30T04:23:24.666Z,6.40
2019-01-30T04:25:54.857Z,7.63
2019-01-30T04:28:25.084Z,6.20
2019-01-30T04:30:55.272Z,7.23
2019-01-30T04:33:25.525Z,8.67
2019-01-30T04:35:55.707Z,7.43
2019-01-30T04:38:26.183Z,6.63
2019-01-30T04:40:56.614Z,6.17
2019-01-30T04:43:26.835Z,6.97
2019-01-30T04:45:57.278Z,6.83
2019-01-30T04:48:27.477Z,6.20
2019-01-30T04:50:57.709Z,5.63
2019-01-30T04:53:27.887Z,5.33
2019-01-30T04:55:58.102Z,6.30
2019-01-30T04:58:28.294Z,8.40
2019-01-30T05:00:58.528Z,5.13
2019-01-30T05:03:29.015Z,6.23
2019-01-30T05:06:00.119Z,8.27
2019-01-30T05:08:30.538Z,9.33
2019-01-30T05:11:00.749Z,7.33
2019-01-30T05:13:31.203Z,5.00
2019-01-30T05:16:01.419Z,7.60
2019-01-30T05:18:31.605Z,9.90
2019-01-30T05:21:02.006Z,7.90
2019-01-30T05:23:32.194Z,8.20
2019-01-30T05:26:02.424Z,7.07
2019-01-30T05:28:32.844Z,5.83
2019-01-30T05:31:03.281Z,6.60
2019-01-30T05:33:33.468Z,7.90
2019-01-30T05:36:03.824Z,8.87
2019-01-30T05:38:34.007Z,8.03
2019-01-30T05:41:04.466Z,9.10
2019-01-30T05:43:34.910Z,11.30
2019-01-30T05:46:05.193Z,7.00
2019-01-30T05:48:35.386Z,8.40
2019-01-30T05:51:05.844Z,6.47
2019-01-30T05:53:36.026Z,9.17
2019-01-30T05:56:06.256Z,6.70
2019-01-30T05:58:36.553Z,9.63
2019-01-30T06:01:07.042Z,7.33
2019-01-30T06:03:37.483Z,7.87
2019-01-30T06:06:07.919Z,8.17
2019-01-30T06:08:38.366Z,8.60
2019-01-30T06:11:08.558Z,8.73
2019-01-30T06:13:38.768Z,9.60
2019-01-30T06:16:09.194Z,7.50
2019-01-30T06:18:39.665Z,7.27
2019-01-30T06:21:09.850Z,7.33
2019-01-30T06:23:40.066Z,8.13
2019-01-30T06:26:10.253Z,7.80
2019-01-30T06:28:40.474Z,9.13
2019-01-30T06:31:10.702Z,10.23
2019-01-30T06:33:40.970Z,9.53
2019-01-30T06:36:11.403Z,9.33
2019-01-30T06:38:41.797Z,8.43
2019-01-30T06:41:12.231Z,10.03
2019-01-30T06:43:42.466Z,10.10
2019-01-30T06:46:12.729Z,9.30
2019-01-30T06:48:43.012Z,11.63
2019-01-30T06:51:13.238Z,11.80
2019-01-30T06:53:43.752Z,12.63
2019-01-30T06:56:15.027Z,11.40
2019-01-30T06:58:45.260Z,14.77
2019-01-30T07:01:15.517Z,12.43
2019-01-30T07:03:45.741Z,12.33
2019-01-30T07:06:15.926Z,11.03
2019-01-30T07:08:46.225Z,11.87
2019-01-30T07:11:16.442Z,16.87
2019-01-30T07:13:46.931Z,12.67
2019-01-30T07:16:17.129Z,11.37
2019-01-30T07:18:47.351Z,11.20
2019-01-30T07:21:17.799Z,12.60
2019-01-30T07:23:48.230Z,14.63
2019-01-30T07:26:18.450Z,14.87
2019-01-30T07:28:48.862Z,11.23
2019-01-30T07:31:19.357Z,16.17
2019-01-30T07:33:49.579Z,13.67
2019-01-30T07:36:19.794Z,15.47
2019-01-30T07:38:49.987Z,15.77
2019-01-30T07:41:20.197Z,12.27
2019-01-30T07:43:50.394Z,13.33
2019-01-30T07:46:20.693Z,13.60
2019-01-30T07:48:50.875Z,14.77
2019-01-30T07:51:21.182Z,13.23
2019-01-30T07:53:51.395Z,14.23
2019-01-30T07:56:21.616Z,16.57
2019-01-30T07:58:52.083Z,15.67
2019-01-30T08:01:22.911Z,15.63
2019-01-30T08:03:53.346Z,16.30
2019-01-30T08:06:23.816Z,17.57
2019-01-30T08:08:54.255Z,14.40
2019-01-30T08:11:24.461Z,14.87
2019-01-30T08:13:54.671Z,18.53
2019-01-30T08:16:24.881Z,16.23
2019-01-30T08:18:55.102Z,14.37
2019-01-30T08:21:27.932Z,14.57
2019-01-30T08:23:57.598Z,14.57
2019-01-30T08:26:28.098Z,13.60
2019-01-30T08:28:58.434Z,13.90
2019-01-30T08:31:28.631Z,15.07
2019-01-30T08:33:59.094Z,16.23
2019-01-30T08:36:29.563Z,19.83
2019-01-30T08:38:59.803Z,13.40
2019-01-30T08:41:30.224Z,16.93
2019-01-30T08:44:00.438Z,16.83
2019-01-30T08:46:30.629Z,16.20
2019-01-30T08:49:01.030Z,16.50
2019-01-30T08:51:31.234Z,15.43
2019-01-30T08:54:01.687Z,14.60
2019-01-30T08:56:38.802Z,14.90
2019-01-30T08:59:05.820Z,14.93
2019-01-30T09:01:35.931Z,17.40
2019-01-30T09:04:06.291Z,14.70
2019-01-30T09:06:36.474Z,15.97
2019-01-30T09:09:08.955Z,14.97
2019-01-30T09:11:39.751Z,16.07
2019-01-30T09:14:09.974Z,15.63
2019-01-30T09:16:40.170Z,14.80
2019-01-30T09:19:10.385Z,15.47
2019-01-30T09:21:40.803Z,18.57
2019-01-30T09:24:11.269Z,15.43
2019-01-30T09:26:41.449Z,14.13
2019-01-30T09:29:11.670Z,17.07
2019-01-30T09:31:41.855Z,15.57
2019-01-30T09:34:12.070Z,12.97
2019-01-30T09:36:42.260Z,13.67
2019-01-30T09:39:13.056Z,14.87
2019-01-30T09:41:43.342Z,14.30
2019-01-30T09:44:13.542Z,13.53
2019-01-30T09:46:44.070Z,17.00
2019-01-30T09:49:14.393Z,14.67
2019-01-30T09:51:44.582Z,14.10
2019-01-30T09:54:14.822Z,14.70
2019-01-30T09:56:45.078Z,15.50
2019-01-30T09:59:15.266Z,17.07
2019-01-30T10:01:45.509Z,15.77
2019-01-30T10:04:15.713Z,17.27
2019-01-30T10:06:48.531Z,17.07
2019-01-30T10:09:18.732Z,16.90
2019-01-30T10:11:48.954Z,20.10
2019-01-30T10:14:19.156Z,18.17
2019-01-30T10:16:49.618Z,17.63
2019-01-30T10:19:20.075Z,15.83
2019-01-30T10:25:40.499Z,17.47
2019-01-30T10:28:16.650Z,17.80
2019-01-30T10:30:47.038Z,17.47
2019-01-30T10:33:17.659Z,14.57
2019-01-30T10:35:48.027Z,21.90
2019-01-30T10:38:18.473Z,17.67
2019-01-30T10:40:48.958Z,18.33
2019-01-30T10:43:19.201Z,21.10
2019-01-30T10:45:49.399Z,17.97
2019-01-30T10:48:19.854Z,16.13
2019-01-30T10:50:50.282Z,19.77
2019-01-30T10:53:20.580Z,17.47
2019-01-30T10:55:51.012Z,17.67
2019-01-30T10:58:21.563Z,19.03
2019-01-30T11:00:52.145Z,19.30
2019-01-30T11:03:22.502Z,19.93
2019-01-30T11:05:52.704Z,22.77
2019-01-30T11:08:23.157Z,18.63
2019-01-30T11:10:53.366Z,17.63
2019-01-30T11:13:23.841Z,18.47
2019-01-30T11:16:01.225Z,16.67
2019-01-30T11:18:31.716Z,16.00
2019-01-30T11:21:01.913Z,20.23
2019-01-30T11:23:32.367Z,21.60
2019-01-30T11:26:06.074Z,17.57
2019-01-30T11:28:40.716Z,18.80
2019-01-30T11:31:14.363Z,20.73
2019-01-30T11:33:44.840Z,25.60
2019-01-30T11:36:16.778Z,21.63
2019-01-30T11:38:46.978Z,19.97
2019-01-30T11:41:17.210Z,20.80
2019-01-30T11:43:47.413Z,23.37
2019-01-30T11:46:17.644Z,24.30
2019-01-30T11:48:56.210Z,25.77
2019-01-30T11:51:20.264Z,25.03
2019-01-30T11:53:50.463Z,22.87
2019-01-30T11:56:20.941Z,23.40
2019-01-30T11:58:51.395Z,21.63
2019-01-30T12:01:21.703Z,24.90
2019-01-30T12:03:52.151Z,23.10
2019-01-30T12:06:22.611Z,24.13
2019-01-30T12:08:53.211Z,22.67
2019-01-30T12:11:23.456Z,21.40
2019-01-30T12:13:53.909Z,20.20
2019-01-30T12:16:24.383Z,20.50
2019-01-30T12:18:54.854Z,22.07
2019-01-30T12:21:25.319Z,24.00
2019-01-30T12:23:55.518Z,22.80
2019-01-30T12:26:25.986Z,27.60
2019-01-30T12:28:56.453Z,25.93
2019-01-30T12:31:26.718Z,22.27
2019-01-30T12:33:59.117Z,23.53
2019-01-30T12:36:29.391Z,25.10
2019-01-30T12:38:59.833Z,22.57
2019-01-30T12:41:30.375Z,21.70
2019-01-30T12:44:00.794Z,18.10
2019-01-30T12:46:31.267Z,20.73
2019-01-30T12:49:01.701Z,20.80
2019-01-30T12:51:31.922Z,19.43
2019-01-30T12:54:02.122Z,20.07
2019-01-30T12:56:32.350Z,19.57
2019-01-30T12:59:02.783Z,19.17
2019-01-30T13:01:33.001Z,25.80
2019-01-30T13:04:03.200Z,22.33
2019-01-30T13:06:33.649Z,22.87
2019-01-30T13:09:06.610Z,25.67
2019-01-30T13:11:36.812Z,22.70
2019-01-30T13:14:07.346Z,23.80
2019-01-30T13:16:37.778Z,25.23
2019-01-30T13:19:08.365Z,25.10
2019-01-30T13:21:38.791Z,21.93
2019-01-30T13:24:09.248Z,18.90
2019-01-30T13:26:39.695Z,22.43
2019-01-30T13:29:10.182Z,23.37
2019-01-30T13:31:40.615Z,24.43
2019-01-30T13:34:11.099Z,28.73
2019-01-30T13:36:41.302Z,22.47
2019-01-30T13:39:11.593Z,20.43
2019-01-30T13:41:42.033Z,21.07
2019-01-30T13:44:12.260Z,21.07
2019-01-30T13:46:42.682Z,19.83
2019-01-30T13:49:12.909Z,20.40
2019-01-30T13:51:43.106Z,20.10
2019-01-30T13:54:13.577Z,22.13
2019-01-30T13:56:43.791Z,20.40
2019-01-30T13:59:14.079Z,20.90
2019-01-30T14:01:44.366Z,23.10
2019-01-30T14:04:14.599Z,20.97
2019-01-30T14:06:44.813Z,20.70
2019-01-30T14:09:15.268Z,23.33
2019-01-30T14:11:45.465Z,22.20
2019-01-30T14:14:15.818Z,20.03
2019-01-30T14:16:46.260Z,22.43
2019-01-30T14:19:16.634Z,24.97
2019-01-30T14:21:47.584Z,20.27
2019-01-30T14:24:17.871Z,24.77
2019-01-30T14:26:48.069Z,26.07
2019-01-30T14:29:18.281Z,22.67
2019-01-30T14:31:48.505Z,24.97
2019-01-30T14:34:18.945Z,19.60
2019-01-30T14:36:49.185Z,19.23
2019-01-30T14:39:19.646Z,23.10
2019-01-30T14:41:50.161Z,22.30
2019-01-30T14:44:20.589Z,18.30
2019-01-30T14:46:51.060Z,19.57
2019-01-30T14:49:21.490Z,21.43
2019-01-30T14:51:51.739Z,19.37
2019-01-30T14:54:22.010Z,22.73
2019-01-30T14:56:52.229Z,16.73
2019-01-30T14:59:22.539Z,21.10
2019-01-30T15:01:52.802Z,18.73
2019-01-30T15:04:23.258Z,20.20
2019-01-30T15:06:53.468Z,16.73
2019-01-30T15:09:23.661Z,18.87
2019-01-30T15:11:54.025Z,20.20
2019-01-30T15:14:24.284Z,21.07
2019-01-30T15:16:54.547Z,20.63
2019-01-30T15:19:24.911Z,21.03
2019-01-30T15:21:56.856Z,22.67
2019-01-30T15:24:27.454Z,23.47
2019-01-30T15:26:57.918Z,26.87
2019-01-30T15:29:53.234Z,27.73
2019-01-30T15:32:23.477Z,28.93
2019-01-30T15:34:53.902Z,23.70
2019-01-30T15:37:24.373Z,28.57
2019-01-30T15:40:10.610Z,22.30
2019-01-30T15:42:49.251Z,23.83
2019-01-30T15:45:16.390Z,28.43
2019-01-30T15:47:46.715Z,24.53
2019-01-30T15:50:19.262Z,28.00
2019-01-30T15:52:49.870Z,39.10
2019-01-30T15:55:20.375Z,30.23
2019-01-30T15:57:53.341Z,31.47
2019-01-30T16:00:35.347Z,34.53
2019-01-30T16:03:06.579Z,36.10
2019-01-30T16:05:44.626Z,32.47
2019-01-30T16:08:08.770Z,34.27
2019-01-30T16:10:39.070Z,31.13
2019-01-30T16:13:09.267Z,35.50
2019-01-30T16:15:46.046Z,32.00
2019-01-30T16:18:16.314Z,31.13
2019-01-30T16:20:46.647Z,33.77
2019-01-30T16:23:16.878Z,30.10
2019-01-30T16:25:47.342Z,32.57
2019-01-30T16:28:17.538Z,33.90
2019-01-30T16:30:47.776Z,37.47
2019-01-30T16:33:18.211Z,32.27
2019-01-30T16:35:55.625Z,35.47
2019-01-30T16:38:20.582Z,39.57
2019-01-30T16:40:51.045Z,36.57
2019-01-30T16:43:21.497Z,36.27
2019-01-30T16:45:51.719Z,40.83
2019-01-30T16:48:22.141Z,39.93
2019-01-30T16:50:52.608Z,45.90
2019-01-30T16:53:22.873Z,40.97
2019-01-30T16:55:53.339Z,44.90
2019-01-30T16:58:23.533Z,36.97
2019-01-30T17:00:53.780Z,38.33
2019-01-30T17:03:24.205Z,38.00
2019-01-30T17:05:54.662Z,41.37
2019-01-30T17:08:24.857Z,39.50
2019-01-30T17:10:56.134Z,34.53
2019-01-30T17:13:26.363Z,44.23
2019-01-30T17:15:56.623Z,38.83
2019-01-30T17:18:26.917Z,38.53
2019-01-30T17:20:57.103Z,37.33
2019-01-30T17:23:27.659Z,34.60
2019-01-30T17:26:02.549Z,35.10
2019-01-30T17:28:32.791Z,37.37
2019-01-30T17:31:04.287Z,35.00
2019-01-30T17:33:34.489Z,36.33
2019-01-30T17:36:05.055Z,36.00
2019-01-30T17:38:35.516Z,41.87
2019-01-30T17:41:06.623Z,35.67
2019-01-30T17:43:36.845Z,40.13
2019-01-30T17:46:07.138Z,37.17
2019-01-30T17:48:37.371Z,32.87
2019-01-30T17:51:07.557Z,40.20
2019-01-30T17:53:38.015Z,31.93
2019-01-30T17:56:08.207Z,32.97
2019-01-30T17:58:38.425Z,35.83
2019-01-30T18:01:08.886Z,39.03
2019-01-30T18:03:39.349Z,38.77
2019-01-30T18:06:09.771Z,33.30
2019-01-30T18:08:39.992Z,38.90
2019-01-30T18:11:10.191Z,32.73
2019-01-30T18:13:40.537Z,37.57
2019-01-30T18:16:10.999Z,35.80
2019-01-30T18:18:41.218Z,35.10
2019-01-30T18:21:11.427Z,32.27
2019-01-30T18:23:41.650Z,31.10
2019-01-30T18:26:12.082Z,34.17
2019-01-30T18:28:42.555Z,30.87
2019-01-30T18:31:12.754Z,36.97
2019-01-30T18:33:42.979Z,32.33
2019-01-30T18:36:13.241Z,34.40
2019-01-30T18:38:43.474Z,30.13
2019-01-30T18:41:13.946Z,31.73
2019-01-30T18:43:45.514Z,32.03
2019-01-30T18:46:16.086Z,33.13
2019-01-30T18:48:46.530Z,30.33
2019-01-30T18:51:16.989Z,27.90
2019-01-30T18:53:47.181Z,30.20
2019-01-30T18:56:17.402Z,28.33
2019-01-30T18:58:47.622Z,29.63
2019-01-30T19:01:18.090Z,30.53
2019-01-30T19:03:48.293Z,26.47
2019-01-30T19:06:18.521Z,27.83
2019-01-30T19:08:48.720Z,27.30
2019-01-30T19:11:18.948Z,30.10
2019-01-30T19:13:49.150Z,25.10
2019-01-30T19:16:19.379Z,28.23
2019-01-30T19:18:49.851Z,25.00
2019-01-30T19:21:20.046Z,26.33
2019-01-30T19:23:50.271Z,23.37
2019-01-30T19:26:20.565Z,23.03
2019-01-30T19:28:50.905Z,18.00
2019-01-30T19:31:21.319Z,19.47
2019-01-30T19:33:51.547Z,15.83
2019-01-30T19:36:21.763Z,16.83
2019-01-30T19:38:52.219Z,17.53
2019-01-30T19:41:23.510Z,17.13
2019-01-30T19:43:53.967Z,14.57
2019-01-30T19:46:24.178Z,14.17
2019-01-30T19:48:54.401Z,13.57
2019-01-30T19:51:24.613Z,14.23
2019-01-30T19:53:57.359Z,15.80
2019-01-30T19:56:27.799Z,11.63
2019-01-30T19:58:58.066Z,14.57
2019-01-30T20:01:36.066Z,10.87
2019-01-30T20:04:00.226Z,13.80
2019-01-30T20:06:30.524Z,15.70
2019-01-30T20:09:01.091Z,13.93
2019-01-30T20:11:31.318Z,12.70
2019-01-30T20:14:01.541Z,13.57
2019-01-30T20:16:31.725Z,12.37
2019-01-30T20:19:02.263Z,13.63
2019-01-30T20:21:32.466Z,13.23
2019-01-30T20:24:03.094Z,20.40
2019-01-30T20:26:34.802Z,10.60
2019-01-30T20:29:07.653Z,13.13
2019-01-30T20:31:38.119Z,14.00
2019-01-30T20:34:10.325Z,9.37
2019-01-30T20:36:40.463Z,11.37
2019-01-30T20:39:10.980Z,12.83
2019-01-30T20:41:42.203Z,13.87
2019-01-30T20:44:12.452Z,11.40
2019-01-30T20:46:42.649Z,10.93
2019-01-30T20:49:12.886Z,11.47
2019-01-30T20:51:43.354Z,11.93
2019-01-30T20:54:13.666Z,12.77
2019-01-30T20:56:43.948Z,15.43
2019-01-30T20:59:19.197Z,12.73
2019-01-30T21:01:49.790Z,9.53
2019-01-30T21:04:20.299Z,15.63
2019-01-30T21:06:50.522Z,12.43
2019-01-30T21:09:20.974Z,10.23
2019-01-30T21:11:51.218Z,10.03
2019-01-30T21:14:21.421Z,14.07
2019-01-30T21:16:51.898Z,14.33
2019-01-30T21:19:22.364Z,13.80
2019-01-30T21:21:52.598Z,12.33
2019-01-30T21:24:22.794Z,11.87
2019-01-30T21:26:53.102Z,10.37
2019-01-30T21:29:23.526Z,12.50
2019-01-30T21:31:54.914Z,9.63
2019-01-30T21:34:25.267Z,11.03
2019-01-30T21:36:55.506Z,11.43
2019-01-30T21:39:25.704Z,10.80
2019-01-30T21:41:56.635Z,12.17
2019-01-30T21:44:27.101Z,11.13
2019-01-30T21:46:57.304Z,10.50
2019-01-30T21:49:27.771Z,11.30
2019-01-30T21:52:40.600Z,15.07
2019-01-30T21:54:59.467Z,12.23
2019-01-30T21:57:40.293Z,13.33
2019-01-30T22:00:22.959Z,10.23
2019-01-30T22:02:56.380Z,12.80
2019-01-30T22:05:31.676Z,11.77
2019-01-30T22:08:09.413Z,10.93
2019-01-30T22:10:46.145Z,11.63
2019-01-30T22:13:23.219Z,7.90
2019-01-30T22:15:56.519Z,9.43
2019-01-30T22:18:28.911Z,13.37
2019-01-30T22:21:00.580Z,9.87
2019-01-30T22:23:33.472Z,10.07
2019-01-30T22:26:05.035Z,8.60
2019-01-30T22:28:36.310Z,10.07
2019-01-30T22:31:06.774Z,8.87
2019-01-30T22:33:37.001Z,11.13
2019-01-30T22:36:07.531Z,8.97
2019-01-30T22:38:37.992Z,8.67
2019-01-30T22:41:10.006Z,7.77
2019-01-30T22:43:40.228Z,8.27
2019-01-30T22:46:10.649Z,6.00
2019-01-30T22:48:41.340Z,6.17
2019-01-30T22:51:11.600Z,8.33
2019-01-30T22:53:41.809Z,10.30
2019-01-30T22:56:12.020Z,8.53
2019-01-30T22:58:42.233Z,8.73
2019-01-30T23:01:22.283Z,7.20
2019-01-30T23:04:07.470Z,7.33
2019-01-30T23:06:40.806Z,6.23
2019-01-30T23:09:39.228Z,9.50
2019-01-30T23:12:24.470Z,8.80
2019-01-30T23:15:20.075Z,8.13
2019-01-30T23:18:05.038Z,7.57
2019-01-30T23:20:36.645Z,7.53
2019-01-30T23:23:09.970Z,7.23
2019-01-30T23:25:46.298Z,7.80
2019-01-30T23:28:31.666Z,6.53
2019-01-30T23:31:04.970Z,8.90
2019-01-30T23:33:56.222Z,7.73
2019-01-30T23:36:35.348Z,7.13
2019-01-30T23:39:40.087Z,6.70
2019-01-30T23:42:31.105Z,9.00
2019-01-30T23:45:25.287Z,5.80
2019-01-30T23:48:30.019Z,4.83
2019-01-30T23:51:09.197Z,7.03
2019-01-30T23:54:01.666Z,6.40
2019-01-30T23:56:55.727Z,4.67
2019-01-30T23:59:40.577Z,7.33
